Time;durP1;ratioP1;P1;durP2;ratioP2;P2;SDS_P1;SDS_P2;PMS_P1;PMS_P2;Temp;Humidity;BMP_temperature;BMP_pressure;BME280_temperature;BME280_humidity;BME280_pressure;Samples;Min_cycle;Max_cycle;Signal;HPM_P1;HPM_P2
2023/08/25 00:00:57;;;;;;;9.80;4.22;;;;;;;;;;4907251;29;20054;-82
2023/08/25 00:03:23;;;;;;;8.60;4.38;;;;;;;;;;4924200;29;20028;-83
2023/08/25 00:05:51;;;;;;;12.55;4.20;;;;;;;;;;4907842;29;20040;-80
2023/08/25 00:08:16;;;;;;;16.30;4.35;;;;;;;;;;4921871;29;20025;-81
2023/08/25 00:10:42;;;;;;;11.65;4.07;;;;;;;;;;4921999;29;20039;-81
2023/08/25 00:13:07;;;;;;;11.25;4.35;;;;;;;;;;4929105;29;20069;-81
2023/08/25 00:15:33;;;;;;;8.50;4.38;;;;;;;;;;4893525;29;20036;-81
2023/08/25 00:17:58;;;;;;;14.57;4.50;;;;;;;;;;4916562;29;20103;-80
2023/08/25 00:20:24;;;;;;;12.40;4.90;;;;;;;;;;4916987;29;20035;-81
2023/08/25 00:22:50;;;;;;;7.30;4.22;;;;;;;;;;4885798;29;20036;-79
2023/08/25 00:25:15;;;;;;;11.82;4.72;;;;;;;;;;4936072;29;20103;-80
2023/08/25 00:27:41;;;;;;;11.30;3.50;;;;;;;;;;4905279;29;20056;-81
2023/08/25 00:30:10;;;;;;;12.48;4.63;;;;;;;;;;4903101;29;20563;-80
2023/08/25 00:32:37;;;;;;;16.33;4.80;;;;;;;;;;4929778;29;20068;-81
2023/08/25 00:35:03;;;;;;;10.25;4.20;;;;;;;;;;4943941;29;20043;-82
2023/08/25 00:37:29;;;;;;;9.90;4.70;;;;;;;;;;4943074;29;20049;-81
2023/08/25 00:39:54;;;;;;;15.15;4.45;;;;;;;;;;4895661;29;20032;-81
2023/08/25 00:42:20;;;;;;;12.23;4.43;;;;;;;;;;4927600;29;20040;-81
2023/08/25 00:44:45;;;;;;;11.27;4.60;;;;;;;;;;4911351;29;20040;-81
2023/08/25 00:47:11;;;;;;;12.95;4.90;;;;;;;;;;4926810;29;20063;-80
2023/08/25 00:49:37;;;;;;;11.18;4.95;;;;;;;;;;4911005;29;20083;-81
2023/08/25 00:52:03;;;;;;;12.35;4.95;;;;;;;;;;4928886;29;20110;-81
2023/08/25 00:54:29;;;;;;;11.57;5.00;;;;;;;;;;4911745;29;20467;-82
2023/08/25 00:56:56;;;;;;;10.10;5.32;;;;;;;;;;4927056;29;20357;-82
2023/08/25 00:59:22;;;;;;;12.70;5.60;;;;;;;;;;4915264;29;20113;-82
2023/08/25 01:01:48;;;;;;;17.33;6.03;;;;;;;;;;4914543;29;20115;-82
2023/08/25 01:04:14;;;;;;;14.88;5.32;;;;;;;;;;4905008;29;20400;-80
2023/08/25 01:06:40;;;;;;;11.68;5.53;;;;;;;;;;4919540;29;20036;-80
2023/08/25 01:09:06;;;;;;;18.38;5.80;;;;;;;;;;4935988;29;20056;-79
2023/08/25 01:11:52;;;;;;;16.55;6.75;;;;;;;;;;4934728;29;20067;-80
2023/08/25 01:14:33;;;;;;;14.07;5.68;;;;;;;;;;4930854;29;20043;-80
2023/08/25 01:17:26;;;;;;;13.32;5.70;;;;;;;;;;4936142;29;20040;-81
2023/08/25 01:19:55;;;;;;;19.25;5.25;;;;;;;;;;4912035;29;20040;-80
2023/08/25 01:22:27;;;;;;;13.82;6.25;;;;;;;;;;4925426;29;20064;-80
2023/08/25 01:24:54;;;;;;;13.73;6.20;;;;;;;;;;4941886;29;20159;-81
2023/08/25 01:27:20;;;;;;;15.00;5.90;;;;;;;;;;4941409;29;20032;-81
2023/08/25 01:29:46;;;;;;;12.32;6.20;;;;;;;;;;4909739;29;20036;-81
2023/08/25 01:32:13;;;;;;;10.80;5.35;;;;;;;;;;4925732;29;20087;-81
2023/08/25 01:34:39;;;;;;;21.55;5.97;;;;;;;;;;4894006;29;20488;-81
2023/08/25 01:37:10;;;;;;;12.13;5.82;;;;;;;;;;4928093;29;20131;-80
2023/08/25 01:39:37;;;;;;;13.43;5.47;;;;;;;;;;4910612;29;20060;-82
2023/08/25 01:42:05;;;;;;;12.10;5.35;;;;;;;;;;4919639;29;20087;-80
2023/08/25 01:44:34;;;;;;;11.32;4.72;;;;;;;;;;4920398;29;20056;-82
2023/08/25 01:47:06;;;;;;;8.77;4.88;;;;;;;;;;4925481;29;20040;-81
2023/08/25 01:49:32;;;;;;;13.73;5.30;;;;;;;;;;4955866;29;20024;-81
2023/08/25 01:51:58;;;;;;;8.38;4.80;;;;;;;;;;4923181;29;20412;-80
2023/08/25 01:54:25;;;;;;;8.52;4.65;;;;;;;;;;4931394;29;20032;-81
2023/08/25 01:56:51;;;;;;;16.42;5.07;;;;;;;;;;4927414;29;20059;-80
2023/08/25 01:59:16;;;;;;;9.27;5.10;;;;;;;;;;4923928;29;20068;-82
2023/08/25 02:01:42;;;;;;;7.38;4.35;;;;;;;;;;4908868;29;20059;-81
2023/08/25 02:04:08;;;;;;;12.27;4.63;;;;;;;;;;4889580;29;20052;-80
2023/08/25 02:06:34;;;;;;;10.65;4.93;;;;;;;;;;4920972;29;20067;-80
2023/08/25 02:08:59;;;;;;;7.22;4.30;;;;;;;;;;4890826;29;20047;-80
2023/08/25 02:11:26;;;;;;;10.15;4.18;;;;;;;;;;4924325;29;20111;-80
2023/08/25 02:13:52;;;;;;;9.35;4.32;;;;;;;;;;4927731;29;20035;-82
2023/08/25 02:16:18;;;;;;;12.35;4.63;;;;;;;;;;4929864;29;20126;-83
2023/08/25 02:18:43;;;;;;;9.07;4.32;;;;;;;;;;4912160;29;20052;-81
2023/08/25 02:21:09;;;;;;;7.80;3.78;;;;;;;;;;4893126;29;20028;-80
2023/08/25 02:23:35;;;;;;;12.80;4.28;;;;;;;;;;4923624;29;20061;-81
2023/08/25 02:26:00;;;;;;;11.07;4.53;;;;;;;;;;4893536;29;20401;-80
2023/08/25 02:28:27;;;;;;;8.52;4.25;;;;;;;;;;4924707;29;20058;-81
2023/08/25 02:30:53;;;;;;;11.95;4.70;;;;;;;;;;4907564;29;20028;-80
2023/08/25 02:33:19;;;;;;;9.32;4.97;;;;;;;;;;4893297;29;20388;-81
2023/08/25 02:35:44;;;;;;;12.57;6.07;;;;;;;;;;4895586;29;20071;-81
2023/08/25 02:38:12;;;;;;;11.68;4.75;;;;;;;;;;4926937;29;20031;-81
2023/08/25 02:40:37;;;;;;;8.65;4.57;;;;;;;;;;4894076;29;20044;-81
2023/08/25 02:43:04;;;;;;;11.10;4.43;;;;;;;;;;4930635;29;20039;-80
2023/08/25 02:45:30;;;;;;;10.15;5.25;;;;;;;;;;4901041;29;20111;-81
2023/08/25 02:47:56;;;;;;;12.48;4.45;;;;;;;;;;4911793;29;20110;-82
2023/08/25 02:50:22;;;;;;;7.65;4.15;;;;;;;;;;4912412;29;20039;-81
2023/08/25 02:52:48;;;;;;;10.73;4.53;;;;;;;;;;4910580;29;20040;-81
2023/08/25 02:55:19;;;;;;;7.25;4.13;;;;;;;;;;4893361;29;20075;-80
2023/08/25 02:57:46;;;;;;;11.98;4.32;;;;;;;;;;4910683;29;20034;-80
2023/08/25 03:00:13;;;;;;;10.20;4.13;;;;;;;;;;4941869;29;20038;-81
2023/08/25 03:02:39;;;;;;;11.27;4.30;;;;;;;;;;4925690;29;20046;-80
2023/08/25 03:05:05;;;;;;;10.68;4.28;;;;;;;;;;4893362;29;20067;-80
2023/08/25 03:07:32;;;;;;;10.07;4.10;;;;;;;;;;4908649;29;20104;-82
2023/08/25 03:09:59;;;;;;;9.02;4.15;;;;;;;;;;4908966;29;20480;-81
2023/08/25 03:12:26;;;;;;;8.88;4.70;;;;;;;;;;4924459;29;20044;-81
2023/08/25 03:14:53;;;;;;;10.15;3.55;;;;;;;;;;4924639;29;20036;-80
2023/08/25 03:17:19;;;;;;;14.73;4.30;;;;;;;;;;4923126;29;20043;-82
2023/08/25 03:19:45;;;;;;;11.63;4.35;;;;;;;;;;4891172;29;20031;-81
2023/08/25 03:22:11;;;;;;;8.82;3.97;;;;;;;;;;4922040;29;20036;-81
2023/08/25 03:24:37;;;;;;;12.48;4.28;;;;;;;;;;4925383;29;20054;-81
2023/08/25 03:27:03;;;;;;;10.75;4.35;;;;;;;;;;4924964;29;20036;-81
2023/08/25 03:29:28;;;;;;;10.77;4.05;;;;;;;;;;4892248;29;20040;-81
2023/08/25 03:31:54;;;;;;;14.13;4.05;;;;;;;;;;4938697;29;20039;-81
2023/08/25 03:34:20;;;;;;;8.68;3.83;;;;;;;;;;4922596;29;20412;-81
2023/08/25 03:36:47;;;;;;;10.85;4.57;;;;;;;;;;4890028;29;20113;-80
2023/08/25 03:39:14;;;;;;;7.35;3.33;;;;;;;;;;4898578;29;20059;-81
2023/08/25 03:41:39;;;;;;;9.05;3.40;;;;;;;;;;4943501;29;20032;-81
2023/08/25 03:44:05;;;;;;;6.40;3.28;;;;;;;;;;4910881;29;20044;-81
2023/08/25 03:46:34;;;;;;;8.65;3.90;;;;;;;;;;4926878;29;20066;-81
2023/08/25 03:49:00;;;;;;;11.88;3.55;;;;;;;;;;4909351;29;20095;-80
2023/08/25 03:51:26;;;;;;;13.80;3.90;;;;;;;;;;4910075;29;20126;-81
2023/08/25 03:53:52;;;;;;;9.15;3.50;;;;;;;;;;4908630;29;20036;-82
2023/08/25 03:56:18;;;;;;;7.93;4.07;;;;;;;;;;4893663;29;20028;-82
2023/08/25 03:58:45;;;;;;;10.63;4.00;;;;;;;;;;4909682;29;20032;-80
2023/08/25 04:01:10;;;;;;;10.13;3.80;;;;;;;;;;4893071;29;20123;-82
2023/08/25 04:03:36;;;;;;;7.57;4.07;;;;;;;;;;4892980;29;20071;-81
2023/08/25 04:06:02;;;;;;;13.43;4.88;;;;;;;;;;4925454;29;20066;-82
2023/08/25 04:08:29;;;;;;;8.60;4.20;;;;;;;;;;4926402;29;20032;-82
2023/08/25 04:10:56;;;;;;;7.38;3.80;;;;;;;;;;4894374;29;20080;-81
2023/08/25 04:13:21;;;;;;;14.50;4.40;;;;;;;;;;4893532;29;20028;-82
2023/08/25 04:16:01;;;;;;;7.38;3.80;;;;;;;;;;4902196;29;20653;-82
2023/08/25 04:18:29;;;;;;;10.18;4.28;;;;;;;;;;4980866;23;20044;-79
2023/08/25 04:20:56;;;;;;;8.15;3.88;;;;;;;;;;4949728;29;20035;-79
2023/08/25 04:23:24;;;;;;;7.20;4.30;;;;;;;;;;4950304;29;20031;-79
2023/08/25 04:25:50;;;;;;;8.20;4.20;;;;;;;;;;4955760;29;20045;-80
2023/08/25 04:28:17;;;;;;;7.82;4.38;;;;;;;;;;4958052;29;20059;-79
2023/08/25 04:30:43;;;;;;;11.05;4.78;;;;;;;;;;4940099;29;20035;-78
2023/08/25 04:33:23;;;;;;;10.63;4.38;;;;;;;;;;4956539;29;20042;-80
2023/08/25 04:35:49;;;;;;;7.13;4.40;;;;;;;;;;4941111;29;20032;-80
2023/08/25 04:38:15;;;;;;;7.72;4.60;;;;;;;;;;4939015;29;20047;-78
2023/08/25 04:40:42;;;;;;;10.43;4.68;;;;;;;;;;4955744;29;20035;-79
2023/08/25 04:43:08;;;;;;;10.80;4.57;;;;;;;;;;4939951;29;20027;-79
2023/08/25 04:45:34;;;;;;;12.18;4.40;;;;;;;;;;4968953;29;20035;-78
2023/08/25 04:48:00;;;;;;;14.70;4.90;;;;;;;;;;4954314;29;20379;-80
2023/08/25 04:50:26;;;;;;;8.98;4.90;;;;;;;;;;4954689;29;20078;-79
2023/08/25 04:52:52;;;;;;;12.95;4.88;;;;;;;;;;4955105;29;20031;-79
2023/08/25 04:55:18;;;;;;;11.45;4.97;;;;;;;;;;4941226;29;20050;-79
2023/08/25 04:57:45;;;;;;;13.52;5.65;;;;;;;;;;4958156;29;20035;-79
2023/08/25 05:00:12;;;;;;;11.65;4.70;;;;;;;;;;4958552;29;20027;-79
2023/08/25 05:02:38;;;;;;;9.27;4.63;;;;;;;;;;4957823;29;20063;-79
2023/08/25 05:05:06;;;;;;;7.32;4.47;;;;;;;;;;4960686;29;20035;-79
2023/08/25 05:07:34;;;;;;;11.23;4.68;;;;;;;;;;4953887;29;20098;-81
2023/08/25 05:10:00;;;;;;;10.75;5.07;;;;;;;;;;4953955;29;20075;-78
2023/08/25 05:12:27;;;;;;;10.02;4.93;;;;;;;;;;4950380;29;20039;-78
2023/08/25 05:14:55;;;;;;;10.35;4.43;;;;;;;;;;4936935;29;20483;-79
2023/08/25 05:17:20;;;;;;;13.70;4.90;;;;;;;;;;4934017;29;20035;-78
2023/08/25 05:19:50;;;;;;;14.50;4.90;;;;;;;;;;4968294;29;20042;-79
2023/08/25 05:22:17;;;;;;;10.55;4.25;;;;;;;;;;4953947;29;20035;-78
2023/08/25 05:24:42;;;;;;;10.18;4.65;;;;;;;;;;4953556;29;20043;-79
2023/08/25 05:27:09;;;;;;;12.00;4.32;;;;;;;;;;4938739;29;20066;-80
2023/08/25 05:29:35;;;;;;;10.82;5.18;;;;;;;;;;4938557;29;20050;-79
2023/08/25 05:32:10;;;;;;;12.50;5.25;;;;;;;;;;4956378;29;20042;-79
2023/08/25 05:34:55;;;;;;;11.30;4.57;;;;;;;;;;4959720;29;20115;-80
2023/08/25 05:37:20;;;;;;;14.23;4.60;;;;;;;;;;4941014;29;20031;-79
2023/08/25 05:39:47;;;;;;;17.15;5.28;;;;;;;;;;4973628;29;20046;-78
2023/08/25 05:42:13;;;;;;;9.32;4.50;;;;;;;;;;4943802;29;20095;-80
2023/08/25 05:44:38;;;;;;;11.48;4.50;;;;;;;;;;4957577;29;20046;-79
2023/08/25 05:47:06;;;;;;;9.52;4.20;;;;;;;;;;4940821;29;20045;-78
2023/08/25 05:49:31;;;;;;;10.32;4.32;;;;;;;;;;4973597;28;20071;-79
2023/08/25 05:51:57;;;;;;;11.88;4.20;;;;;;;;;;4973040;29;20038;-78
2023/08/25 05:54:23;;;;;;;10.50;4.80;;;;;;;;;;4952295;29;20085;-78
2023/08/25 05:56:52;;;;;;;8.73;4.50;;;;;;;;;;4929497;29;20086;-77
2023/08/25 05:59:17;;;;;;;7.65;3.95;;;;;;;;;;4931990;29;20031;-78
2023/08/25 06:01:43;;;;;;;9.88;4.25;;;;;;;;;;4934954;29;20099;-78
2023/08/25 06:04:10;;;;;;;11.73;4.13;;;;;;;;;;4929607;29;20043;-77
2023/08/25 06:06:38;;;;;;;13.48;5.13;;;;;;;;;;4931785;29;20035;-78
2023/08/25 06:09:04;;;;;;;10.25;4.80;;;;;;;;;;4932760;29;20042;-78
2023/08/25 06:11:29;;;;;;;16.33;4.30;;;;;;;;;;4962616;29;20042;-78
2023/08/25 06:13:55;;;;;;;8.85;4.30;;;;;;;;;;4928122;29;20042;-78
2023/08/25 06:16:21;;;;;;;6.63;3.80;;;;;;;;;;4931511;29;20032;-78
2023/08/25 06:18:50;;;;;;;9.57;4.10;;;;;;;;;;4952601;29;20031;-79
2023/08/25 06:21:15;;;;;;;11.52;5.05;;;;;;;;;;4935431;29;20098;-78
2023/08/25 06:23:41;;;;;;;11.45;4.38;;;;;;;;;;4934877;29;20038;-79
2023/08/25 06:26:07;;;;;;;8.07;4.10;;;;;;;;;;4965476;29;20452;-78
2023/08/25 06:28:33;;;;;;;8.07;3.78;;;;;;;;;;4949191;29;20035;-78
2023/08/25 06:31:00;;;;;;;9.38;4.63;;;;;;;;;;4963381;29;20102;-79
2023/08/25 06:33:29;;;;;;;11.10;4.35;;;;;;;;;;4970256;28;20556;-78
2023/08/25 06:35:58;;;;;;;12.55;4.03;;;;;;;;;;4953957;29;20042;-78
2023/08/25 06:38:24;;;;;;;8.52;4.28;;;;;;;;;;4952554;29;20061;-78
2023/08/25 06:40:50;;;;;;;9.30;4.32;;;;;;;;;;4945177;29;20132;-78
2023/08/25 06:43:16;;;;;;;11.52;4.22;;;;;;;;;;4961762;29;20035;-78
2023/08/25 06:45:43;;;;;;;13.23;4.53;;;;;;;;;;4934277;29;20066;-79
2023/08/25 06:48:08;;;;;;;10.55;3.72;;;;;;;;;;4933505;29;20059;-79
2023/08/25 06:50:34;;;;;;;12.80;3.80;;;;;;;;;;4934794;29;20031;-79
2023/08/25 06:52:59;;;;;;;11.60;4.53;;;;;;;;;;4954451;29;20032;-78
2023/08/25 06:55:25;;;;;;;12.70;3.90;;;;;;;;;;4940889;29;20107;-78
2023/08/25 06:57:51;;;;;;;11.07;3.97;;;;;;;;;;4942064;29;20046;-78
2023/08/25 07:00:21;;;;;;;9.02;4.18;;;;;;;;;;4958206;29;20067;-78
2023/08/25 07:02:46;;;;;;;12.55;4.05;;;;;;;;;;4954865;29;20039;-78
2023/08/25 07:05:13;;;;;;;7.78;4.03;;;;;;;;;;4937787;29;20573;-78
2023/08/25 07:07:42;;;;;;;8.10;4.18;;;;;;;;;;4953283;29;20039;-78
2023/08/25 07:10:08;;;;;;;10.30;3.95;;;;;;;;;;4953171;29;20059;-78
2023/08/25 07:12:35;;;;;;;9.32;4.05;;;;;;;;;;4951588;29;20034;-78
2023/08/25 07:15:01;;;;;;;13.00;3.90;;;;;;;;;;4938191;29;20042;-78
2023/08/25 07:17:26;;;;;;;8.32;3.60;;;;;;;;;;4936342;29;20053;-78
2023/08/25 07:19:52;;;;;;;5.88;3.58;;;;;;;;;;4963654;29;20086;-79
2023/08/25 07:22:18;;;;;;;9.07;3.85;;;;;;;;;;4962824;29;20387;-77
2023/08/25 07:24:46;;;;;;;12.27;3.83;;;;;;;;;;4932640;29;20173;-78
2023/08/25 07:27:11;;;;;;;12.07;4.20;;;;;;;;;;4959076;28;20031;-77
2023/08/25 07:29:37;;;;;;;6.40;3.80;;;;;;;;;;4927928;29;20139;-77
2023/08/25 07:32:03;;;;;;;9.20;3.63;;;;;;;;;;4945344;29;20107;-80
2023/08/25 07:34:29;;;;;;;10.23;4.63;;;;;;;;;;4949345;29;20035;-79
2023/08/25 07:36:55;;;;;;;8.10;3.90;;;;;;;;;;4928068;29;20038;-80
2023/08/25 07:39:21;;;;;;;7.03;3.92;;;;;;;;;;4928445;29;20035;-77
2023/08/25 07:41:47;;;;;;;11.20;4.35;;;;;;;;;;4944954;29;20039;-79
2023/08/25 07:44:13;;;;;;;6.70;3.90;;;;;;;;;;4949294;29;20034;-79
2023/08/25 07:46:39;;;;;;;9.98;4.10;;;;;;;;;;4945037;29;20503;-79
2023/08/25 07:49:08;;;;;;;6.35;4.18;;;;;;;;;;4959217;28;20078;-77
2023/08/25 07:51:37;;;;;;;10.45;3.90;;;;;;;;;;4928764;29;20118;-78
2023/08/25 07:54:03;;;;;;;8.23;4.43;;;;;;;;;;4932237;29;20035;-78
2023/08/25 07:56:28;;;;;;;6.22;4.07;;;;;;;;;;4948751;29;20031;-78
2023/08/25 07:58:54;;;;;;;12.05;4.00;;;;;;;;;;4966508;29;20118;-78
2023/08/25 08:01:21;;;;;;;11.25;4.20;;;;;;;;;;4947631;29;20125;-79
2023/08/25 08:03:47;;;;;;;12.20;4.18;;;;;;;;;;4932377;29;20061;-78
2023/08/25 08:06:13;;;;;;;9.20;3.63;;;;;;;;;;4948543;29;20028;-78
2023/08/25 08:08:40;;;;;;;7.47;3.95;;;;;;;;;;4967168;28;20079;-79
2023/08/25 08:11:06;;;;;;;10.85;3.78;;;;;;;;;;4937483;29;20031;-79
2023/08/25 08:13:34;;;;;;;8.93;3.85;;;;;;;;;;4940563;29;20027;-79
2023/08/25 08:16:00;;;;;;;8.15;3.95;;;;;;;;;;4953747;29;20039;-78
2023/08/25 08:18:26;;;;;;;7.65;3.95;;;;;;;;;;4937777;29;20039;-79
2023/08/25 08:20:53;;;;;;;8.70;3.88;;;;;;;;;;4937078;29;20042;-81
2023/08/25 08:23:20;;;;;;;7.43;3.83;;;;;;;;;;4935585;29;20059;-79
2023/08/25 08:25:46;;;;;;;7.45;3.63;;;;;;;;;;4951276;29;20043;-79
2023/08/25 08:28:12;;;;;;;10.60;4.05;;;;;;;;;;4968964;29;20031;-79
2023/08/25 08:30:40;;;;;;;8.38;3.90;;;;;;;;;;4968402;28;20035;-79
2023/08/25 08:33:09;;;;;;;8.38;4.03;;;;;;;;;;4950681;29;20066;-78
2023/08/25 08:35:35;;;;;;;6.80;3.58;;;;;;;;;;4970087;28;20066;-78
2023/08/25 08:38:01;;;;;;;6.35;3.78;;;;;;;;;;4947288;29;20050;-78
2023/08/25 08:40:31;;;;;;;8.52;4.00;;;;;;;;;;4972025;28;20040;-79
2023/08/25 08:43:02;;;;;;;8.93;3.80;;;;;;;;;;4955187;29;20070;-78
2023/08/25 08:45:29;;;;;;;6.85;3.60;;;;;;;;;;4953515;29;20503;-79
2023/08/25 08:47:55;;;;;;;5.97;3.67;;;;;;;;;;4966764;29;20403;-78
2023/08/25 08:50:23;;;;;;;11.32;3.60;;;;;;;;;;4949791;29;20627;-79
2023/08/25 08:52:49;;;;;;;9.35;4.03;;;;;;;;;;4952740;29;20050;-79
2023/08/25 08:55:16;;;;;;;12.00;3.83;;;;;;;;;;4953105;29;20035;-79
2023/08/25 08:57:43;;;;;;;6.68;3.78;;;;;;;;;;4952328;29;20447;-78
2023/08/25 09:00:12;;;;;;;7.38;3.53;;;;;;;;;;4953552;29;20023;-79
2023/08/25 09:02:39;;;;;;;11.80;3.78;;;;;;;;;;4953184;29;20035;-79
2023/08/25 09:05:05;;;;;;;11.15;3.75;;;;;;;;;;4951699;29;20050;-79
2023/08/25 09:07:32;;;;;;;8.23;3.28;;;;;;;;;;4950587;29;20066;-80
2023/08/25 09:09:59;;;;;;;8.95;3.70;;;;;;;;;;4965704;29;20031;-79
2023/08/25 09:12:25;;;;;;;7.13;3.63;;;;;;;;;;4935015;29;20106;-79
2023/08/25 09:14:51;;;;;;;11.00;3.83;;;;;;;;;;4946786;29;20403;-79
2023/08/25 09:17:18;;;;;;;7.25;3.47;;;;;;;;;;4948431;29;20042;-79
2023/08/25 09:19:45;;;;;;;9.47;3.80;;;;;;;;;;4947762;29;20143;-78
2023/08/25 09:22:13;;;;;;;5.88;3.35;;;;;;;;;;4963978;29;20090;-78
2023/08/25 09:24:41;;;;;;;7.45;3.78;;;;;;;;;;4953860;29;20409;-78
2023/08/25 09:27:07;;;;;;;;;;;;;;;;;;4959104;29;20038;-78
2023/08/25 09:29:39;;;;;;;10.13;4.90;;;;;;;;;;4976033;29;19958;-79
2023/08/25 09:32:14;;;;;;;7.05;3.70;;;;;;;;;;4944355;29;20415;-79
2023/08/25 09:34:41;;;;;;;7.55;3.42;;;;;;;;;;4944804;29;20518;-79
2023/08/25 09:37:07;;;;;;;9.02;3.65;;;;;;;;;;4959838;29;20094;-79
2023/08/25 09:39:42;;;;;;;8.82;3.90;;;;;;;;;;4975995;28;20037;-79
2023/08/25 09:42:07;;;;;;;12.23;4.10;;;;;;;;;;4959383;29;20027;-79
2023/08/25 09:44:33;;;;;;;6.43;3.53;;;;;;;;;;4940661;29;20043;-79
2023/08/25 09:46:59;;;;;;;6.93;3.33;;;;;;;;;;4954005;29;20067;-79
2023/08/25 09:49:36;;;;;;;6.63;3.58;;;;;;;;;;4951210;28;20028;-79
2023/08/25 09:52:02;;;;;;;7.50;3.63;;;;;;;;;;4934557;29;20035;-79
2023/08/25 09:54:28;;;;;;;11.23;4.10;;;;;;;;;;4916313;29;20100;-78
2023/08/25 09:56:55;;;;;;;9.10;3.65;;;;;;;;;;4950597;29;20154;-78
2023/08/25 09:59:21;;;;;;;11.27;3.70;;;;;;;;;;4936435;29;20027;-79
2023/08/25 10:01:46;;;;;;;9.27;3.80;;;;;;;;;;4968427;29;20110;-79
2023/08/25 10:04:16;;;;;;;6.68;3.63;;;;;;;;;;4951899;29;20039;-78
2023/08/25 10:06:42;;;;;;;6.05;3.35;;;;;;;;;;4934625;29;20042;-79
2023/08/25 10:09:10;;;;;;;8.23;3.50;;;;;;;;;;4950479;29;20031;-78
2023/08/25 10:11:42;;;;;;;5.57;3.10;;;;;;;;;;4951950;29;20031;-78
2023/08/25 10:14:10;;;;;;;9.05;3.60;;;;;;;;;;4934867;29;20153;-78
2023/08/25 10:16:50;;;;;;;8.27;3.42;;;;;;;;;;4962129;23;20145;-82
2023/08/25 10:19:18;;;;;;;7.13;4.07;;;;;;;;;;4947929;28;20490;-83
2023/08/25 10:21:46;;;;;;;6.70;3.67;;;;;;;;;;4980950;28;20549;-84
2023/08/25 10:24:17;;;;;;;8.73;3.95;;;;;;;;;;4982548;28;20046;-84
2023/08/25 10:26:45;;;;;;;6.65;3.50;;;;;;;;;;4981983;28;20034;-82
2023/08/25 10:29:11;;;;;;;6.72;3.35;;;;;;;;;;4964089;28;20038;-85
2023/08/25 10:31:46;;;;;;;4.75;3.35;;;;;;;;;;4966573;28;20046;-82
2023/08/25 10:34:32;;;;;;;8.05;3.72;;;;;;;;;;4947721;28;20118;-84
2023/08/25 10:37:09;;;;;;;9.88;3.90;;;;;;;;;;4981223;28;20499;-83
2023/08/25 10:39:44;;;;;;;13.10;4.20;;;;;;;;;;4980863;28;20023;-83
2023/08/25 10:42:10;;;;;;;8.57;3.80;;;;;;;;;;4979230;28;20717;-84
2023/08/25 10:44:40;;;;;;;12.35;3.92;;;;;;;;;;4963486;28;20031;-84
2023/08/25 10:47:05;;;;;;;12.35;3.83;;;;;;;;;;4981301;28;20398;-83
2023/08/25 10:49:36;;;;;;;7.95;3.55;;;;;;;;;;4965999;28;20062;-84
2023/08/25 10:52:24;;;;;;;8.57;3.58;;;;;;;;;;4982526;28;20033;-84
2023/08/25 10:54:51;;;;;;;8.32;3.63;;;;;;;;;;4963567;28;20035;-84
2023/08/25 10:57:17;;;;;;;7.43;3.83;;;;;;;;;;4967528;28;20042;-83
2023/08/25 10:59:53;;;;;;;6.65;3.22;;;;;;;;;;4983282;28;20066;-85
2023/08/25 11:02:37;;;;;;;5.75;3.40;;;;;;;;;;4982163;28;20094;-84
2023/08/25 11:05:23;;;;;;;8.05;3.47;;;;;;;;;;4951142;28;20030;-82
2023/08/25 11:07:49;;;;;;;6.45;3.42;;;;;;;;;;4982196;28;20110;-84
2023/08/25 11:10:20;;;;;;;7.05;3.45;;;;;;;;;;4963627;28;20030;-83
2023/08/25 11:12:46;;;;;;;11.18;3.78;;;;;;;;;;4964353;28;20107;-85
2023/08/25 11:15:14;;;;;;;6.72;2.85;;;;;;;;;;4980712;28;20483;-84
2023/08/25 11:17:39;;;;;;;9.77;3.70;;;;;;;;;;4982042;28;20121;-84
2023/08/25 11:20:05;;;;;;;8.32;3.88;;;;;;;;;;4980766;28;20023;-83
2023/08/25 11:22:31;;;;;;;6.43;3.15;;;;;;;;;;4947659;28;20026;-83
2023/08/25 11:24:56;;;;;;;5.90;3.28;;;;;;;;;;4981896;28;20042;-84
2023/08/25 11:27:22;;;;;;;11.18;2.97;;;;;;;;;;4982157;28;20063;-83
2023/08/25 11:29:49;;;;;;;6.20;3.10;;;;;;;;;;4982507;28;20137;-83
2023/08/25 11:32:15;;;;;;;8.18;3.50;;;;;;;;;;4964385;28;20035;-82
2023/08/25 11:34:41;;;;;;;9.35;2.72;;;;;;;;;;4950818;28;20035;-84
2023/08/25 11:37:09;;;;;;;7.75;2.67;;;;;;;;;;4953647;28;20031;-82
2023/08/25 11:39:40;;;;;;;8.35;3.10;;;;;;;;;;4958058;28;20031;-82
2023/08/25 11:42:11;;;;;;;5.10;2.35;;;;;;;;;;4977406;28;20034;-83
2023/08/25 11:44:43;;;;;;;9.27;2.80;;;;;;;;;;4993602;28;20494;-81
2023/08/25 11:47:09;;;;;;;7.68;2.55;;;;;;;;;;4977474;28;20029;-83
2023/08/25 11:49:35;;;;;;;8.40;3.10;;;;;;;;;;4994766;28;20038;-82
2023/08/25 11:52:01;;;;;;;6.35;2.83;;;;;;;;;;4994513;28;20031;-84
2023/08/25 11:54:26;;;;;;;10.80;2.83;;;;;;;;;;4996385;28;20034;-83
2023/08/25 11:56:52;;;;;;;6.13;2.80;;;;;;;;;;4994930;28;20111;-84
2023/08/25 11:59:18;;;;;;;5.82;2.60;;;;;;;;;;4996830;28;20034;-83
2023/08/25 12:01:46;;;;;;;6.65;2.30;;;;;;;;;;4975535;28;20045;-83
2023/08/25 12:04:24;;;;;;;8.05;2.63;;;;;;;;;;4969220;28;20058;-84
2023/08/25 12:06:51;;;;;;;4.65;2.72;;;;;;;;;;4947294;28;20039;-84
2023/08/25 12:09:17;;;;;;;7.00;3.00;;;;;;;;;;4963104;28;20027;-83
2023/08/25 12:11:42;;;;;;;7.28;2.67;;;;;;;;;;4981634;28;20035;-83
2023/08/25 12:14:22;;;;;;;7.18;2.90;;;;;;;;;;4967701;28;20035;-82
2023/08/25 12:16:47;;;;;;;6.57;2.90;;;;;;;;;;4971719;28;20046;-83
2023/08/25 12:19:13;;;;;;;7.57;2.95;;;;;;;;;;4985428;28;20035;-84
2023/08/25 12:21:40;;;;;;;6.63;2.40;;;;;;;;;;4953341;28;20031;-83
2023/08/25 12:24:06;;;;;;;5.72;2.92;;;;;;;;;;4984955;28;20109;-82
2023/08/25 12:26:31;;;;;;;4.75;2.60;;;;;;;;;;4982308;28;20054;-83
2023/08/25 12:28:57;;;;;;;9.55;3.15;;;;;;;;;;4983284;28;20082;-83
2023/08/25 12:36:11;;;;;;;;;;;;;;;;;;;;;
2023/08/25 12:40:05;;;;;;;8.23;2.97;;;;;;;;;;4958256;28;20026;-84
2023/08/25 12:46:34;;;;;;;7.45;3.80;;;;;;;;;;4955450;28;20043;-83
2023/08/25 12:48:59;;;;;;;7.55;3.00;;;;;;;;;;4964915;28;20030;-83
2023/08/25 12:51:25;;;;;;;9.23;2.83;;;;;;;;;;4965233;28;20042;-83
2023/08/25 12:53:53;;;;;;;6.55;2.88;;;;;;;;;;4966105;28;20033;-83
2023/08/25 12:56:20;;;;;;;;;;;;;;;;;;4949881;28;20030;-83
2023/08/25 12:58:51;;;;;;;10.63;2.78;;;;;;;;;;4949622;28;19894;-84
2023/08/25 13:01:22;;;;;;;10.05;2.88;;;;;;;;;;4951355;28;20026;-83
2023/08/25 13:03:48;;;;;;;6.70;2.78;;;;;;;;;;4967474;28;20035;-83
2023/08/25 13:06:14;;;;;;;3.67;2.30;;;;;;;;;;4935337;28;20099;-84
2023/08/25 13:08:39;;;;;;;9.98;3.17;;;;;;;;;;4950922;28;20030;-83
2023/08/25 13:11:05;;;;;;;8.88;2.70;;;;;;;;;;4983285;28;20093;-83
2023/08/25 13:13:34;;;;;;;6.97;2.55;;;;;;;;;;4983817;28;20043;-83
2023/08/25 13:16:00;;;;;;;6.40;2.78;;;;;;;;;;4982056;28;20038;-84
2023/08/25 13:18:28;;;;;;;4.63;2.50;;;;;;;;;;4981374;28;20161;-84
2023/08/25 13:20:54;;;;;;;6.18;2.65;;;;;;;;;;4965992;28;20035;-84
2023/08/25 13:23:20;;;;;;;6.93;2.58;;;;;;;;;;4980843;28;20070;-83
2023/08/25 13:25:51;;;;;;;10.52;2.78;;;;;;;;;;4979625;28;20038;-81
2023/08/25 13:28:23;;;;;;;5.53;2.38;;;;;;;;;;4981085;28;20031;-83
2023/08/25 13:30:49;;;;;;;6.55;2.78;;;;;;;;;;4965879;28;20043;-82
2023/08/25 13:33:18;;;;;;;6.88;2.42;;;;;;;;;;4980592;28;20037;-86
2023/08/25 13:35:50;;;;;;;5.50;2.60;;;;;;;;;;4965913;28;20046;-83
2023/08/25 13:38:17;;;;;;;6.63;2.70;;;;;;;;;;4965882;28;20031;-83
2023/08/25 13:40:43;;;;;;;4.97;2.28;;;;;;;;;;4981621;28;20023;-84
2023/08/25 13:43:10;;;;;;;8.35;2.58;;;;;;;;;;4982393;28;20390;-84
2023/08/25 13:45:36;;;;;;;4.93;2.80;;;;;;;;;;4964750;28;20037;-83
2023/08/25 13:48:02;;;;;;;7.22;2.80;;;;;;;;;;4981757;28;20034;-84
2023/08/25 13:50:28;;;;;;;5.30;3.08;;;;;;;;;;4965544;28;20090;-84
2023/08/25 13:52:55;;;;;;;7.53;2.40;;;;;;;;;;4966887;28;20098;-83
2023/08/25 13:55:21;;;;;;;5.47;2.20;;;;;;;;;;4983676;28;20055;-84
2023/08/25 13:57:48;;;;;;;6.95;2.60;;;;;;;;;;4982008;28;20047;-83
2023/08/25 14:00:16;;;;;;;5.88;2.55;;;;;;;;;;4996352;28;20062;-83
2023/08/25 14:02:43;;;;;;;6.87;2.73;;;;;;;;;;4996414;28;20035;-82
2023/08/25 14:05:09;;;;;;;6.57;2.70;;;;;;;;;;4963922;28;20039;-83
2023/08/25 14:07:39;;;;;;;7.97;2.90;;;;;;;;;;4965378;28;20023;-84
2023/08/25 14:10:05;;;;;;;8.18;3.10;;;;;;;;;;4980506;28;20030;-83
2023/08/25 14:12:33;;;;;;;11.35;2.72;;;;;;;;;;4966079;28;20102;-83
2023/08/25 14:14:59;;;;;;;6.82;2.53;;;;;;;;;;4982271;28;20034;-82
2023/08/25 14:17:25;;;;;;;11.02;2.92;;;;;;;;;;4966903;28;20058;-84
2023/08/25 14:19:55;;;;;;;9.40;3.10;;;;;;;;;;4983111;28;20111;-85
2023/08/25 14:22:21;;;;;;;4.60;2.08;;;;;;;;;;4965655;28;20039;-83
2023/08/25 14:24:47;;;;;;;6.82;2.47;;;;;;;;;;4967427;28;20042;-84
2023/08/25 14:27:13;;;;;;;5.88;2.80;;;;;;;;;;4984128;28;20034;-85
2023/08/25 14:29:39;;;;;;;9.18;2.75;;;;;;;;;;4965154;28;20027;-83
2023/08/25 14:32:05;;;;;;;3.95;2.25;;;;;;;;;;4951034;28;20046;-82
2023/08/25 14:37:27;;;;;;;7.72;2.58;;;;;;;;;;4977157;28;20058;-83
2023/08/25 14:39:54;;;;;;;5.75;2.30;;;;;;;;;;4979116;28;20430;-85
2023/08/25 14:42:23;;;;;;;4.22;2.42;;;;;;;;;;4984940;28;20046;-84
2023/08/25 14:44:48;;;;;;;7.00;2.78;;;;;;;;;;4965582;28;20042;-83
2023/08/25 14:47:13;;;;;;;8.13;2.75;;;;;;;;;;4979144;28;20042;-83
2023/08/25 14:49:39;;;;;;;8.65;2.38;;;;;;;;;;4977397;28;20126;-82
2023/08/25 14:52:05;;;;;;;6.88;2.60;;;;;;;;;;4964001;28;20041;-84